sensor_id;sensor_type;location;lat;lon;timestamp;pressure;altitude;pressure_sealevel;temperature;humidity
51617;BME280;37697;52.588;13.394;2023-08-06T00:03:43;100345.81;;;16.48;89.42
51617;BME280;37697;52.588;13.394;2023-08-06T00:08:49;100348.50;;;16.48;90.84
51617;BME280;37697;52.588;13.394;2023-08-06T00:13:54;100349.66;;;16.46;90.37
51617;BME280;37697;52.588;13.394;2023-08-06T00:19:00;100352.73;;;16.45;90.39
51617;BME280;37697;52.588;13.394;2023-08-06T00:24:05;100342.52;;;16.44;90.66
51617;BME280;37697;52.588;13.394;2023-08-06T00:29:11;100330.78;;;16.42;90.85
51617;BME280;37697;52.588;13.394;2023-08-06T00:34:16;100331.00;;;16.41;91.09
51617;BME280;37697;52.588;13.394;2023-08-06T00:39:21;100318.17;;;16.39;91.25
51617;BME280;37697;52.588;13.394;2023-08-06T00:44:27;100323.57;;;16.39;91.47
51617;BME280;37697;52.588;13.394;2023-08-06T00:49:32;100321.96;;;16.38;91.60
51617;BME280;37697;52.588;13.394;2023-08-06T00:54:38;100320.58;;;16.37;91.75
51617;BME280;37697;52.588;13.394;2023-08-06T00:59:44;100314.52;;;16.36;91.84
51617;BME280;37697;52.588;13.394;2023-08-06T01:04:50;100313.60;;;16.35;91.96
51617;BME280;37697;52.588;13.394;2023-08-06T01:10:00;100313.39;;;16.34;92.04
51617;BME280;37697;52.588;13.394;2023-08-06T01:15:19;100310.21;;;16.33;92.32
51617;BME280;37697;52.588;13.394;2023-08-06T01:20:30;100306.30;;;16.33;92.35
51617;BME280;37697;52.588;13.394;2023-08-06T01:25:40;100303.80;;;16.31;92.44
51617;BME280;37697;52.588;13.394;2023-08-06T01:30:50;100297.50;;;16.30;92.58
51617;BME280;37697;52.588;13.394;2023-08-06T01:35:56;100289.52;;;16.28;92.78
51617;BME280;37697;52.588;13.394;2023-08-06T01:41:02;100283.37;;;16.27;92.91
51617;BME280;37697;52.588;13.394;2023-08-06T01:46:08;100272.59;;;16.25;93.08
51617;BME280;37697;52.588;13.394;2023-08-06T01:51:13;100271.45;;;16.24;93.21
51617;BME280;37697;52.588;13.394;2023-08-06T01:56:19;100263.41;;;16.23;93.54
51617;BME280;37697;52.588;13.394;2023-08-06T02:01:24;100257.42;;;16.19;93.74
51617;BME280;37697;52.588;13.394;2023-08-06T02:06:30;100249.73;;;16.16;94.12
51617;BME280;37697;52.588;13.394;2023-08-06T02:11:35;100246.66;;;16.12;94.22
51617;BME280;37697;52.588;13.394;2023-08-06T02:16:40;100240.89;;;16.09;94.48
51617;BME280;37697;52.588;13.394;2023-08-06T02:21:46;100237.15;;;16.09;94.74
51617;BME280;37697;52.588;13.394;2023-08-06T02:26:52;100238.77;;;16.08;94.91
51617;BME280;37697;52.588;13.394;2023-08-06T02:32:00;100236.86;;;16.08;95.15
51617;BME280;37697;52.588;13.394;2023-08-06T02:37:07;100229.74;;;16.06;95.17
51617;BME280;37697;52.588;13.394;2023-08-06T02:42:12;100220.67;;;16.02;95.32
51617;BME280;37697;52.588;13.394;2023-08-06T02:47:18;100218.91;;;16.02;95.60
51617;BME280;37697;52.588;13.394;2023-08-06T02:52:23;100211.67;;;16.01;95.67
51617;BME280;37697;52.588;13.394;2023-08-06T02:57:28;100203.66;;;16.01;95.75
51617;BME280;37697;52.588;13.394;2023-08-06T03:02:34;100196.89;;;16.01;95.90
51617;BME280;37697;52.588;13.394;2023-08-06T03:07:39;100198.85;;;15.99;96.17
51617;BME280;37697;52.588;13.394;2023-08-06T03:12:45;100199.91;;;15.98;96.39
51617;BME280;37697;52.588;13.394;2023-08-06T03:17:50;100199.95;;;15.96;96.74
51617;BME280;37697;52.588;13.394;2023-08-06T03:22:55;100193.81;;;15.92;96.72
51617;BME280;37697;52.588;13.394;2023-08-06T03:28:01;100184.65;;;15.88;96.91
51617;BME280;37697;52.588;13.394;2023-08-06T03:33:07;100187.08;;;15.84;97.17
51617;BME280;37697;52.588;13.394;2023-08-06T03:38:12;100179.40;;;15.80;97.38
51617;BME280;37697;52.588;13.394;2023-08-06T03:43:17;100161.68;;;15.78;97.54
51617;BME280;37697;52.588;13.394;2023-08-06T03:48:23;100156.75;;;15.75;97.53
51617;BME280;37697;52.588;13.394;2023-08-06T03:53:28;100147.82;;;15.74;97.83
51617;BME280;37697;52.588;13.394;2023-08-06T03:58:34;100145.23;;;15.73;97.96
51617;BME280;37697;52.588;13.394;2023-08-06T04:03:39;100141.13;;;15.73;98.17
51617;BME280;37697;52.588;13.394;2023-08-06T04:08:44;100139.36;;;15.72;98.35
51617;BME280;37697;52.588;13.394;2023-08-06T04:13:50;100132.79;;;15.73;98.37
51617;BME280;37697;52.588;13.394;2023-08-06T04:18:55;100123.36;;;15.73;98.50
51617;BME280;37697;52.588;13.394;2023-08-06T04:24:01;100121.73;;;15.72;98.70
51617;BME280;37697;52.588;13.394;2023-08-06T04:29:06;100123.09;;;15.72;98.96
51617;BME280;37697;52.588;13.394;2023-08-06T04:34:12;100116.29;;;15.72;99.11
51617;BME280;37697;52.588;13.394;2023-08-06T04:39:17;100109.56;;;15.73;99.40
51617;BME280;37697;52.588;13.394;2023-08-06T04:44:23;100100.98;;;15.73;99.51
51617;BME280;37697;52.588;13.394;2023-08-06T04:49:28;100089.69;;;15.71;99.70
51617;BME280;37697;52.588;13.394;2023-08-06T04:54:33;100086.57;;;15.70;99.81
51617;BME280;37697;52.588;13.394;2023-08-06T04:59:40;100081.20;;;15.74;99.93
51617;BME280;37697;52.588;13.394;2023-08-06T05:04:45;100082.24;;;15.77;99.99
51617;BME280;37697;52.588;13.394;2023-08-06T05:09:51;100076.67;;;15.79;99.97
51617;BME280;37697;52.588;13.394;2023-08-06T05:14:56;100078.67;;;15.82;100.00
51617;BME280;37697;52.588;13.394;2023-08-06T05:20:01;100077.55;;;15.85;100.00
51617;BME280;37697;52.588;13.394;2023-08-06T05:25:08;100067.58;;;15.89;100.00
51617;BME280;37697;52.588;13.394;2023-08-06T05:30:14;100063.73;;;15.91;100.00
51617;BME280;37697;52.588;13.394;2023-08-06T05:35:19;100048.25;;;15.92;100.00
51617;BME280;37697;52.588;13.394;2023-08-06T05:40:24;100046.98;;;15.96;100.00
51617;BME280;37697;52.588;13.394;2023-08-06T05:45:30;100044.98;;;15.99;100.00
51617;BME280;37697;52.588;13.394;2023-08-06T05:50:35;100048.93;;;16.01;100.00
51617;BME280;37697;52.588;13.394;2023-08-06T05:55:41;100049.41;;;16.04;100.00
51617;BME280;37697;52.588;13.394;2023-08-06T06:00:47;100054.63;;;16.09;100.00
51617;BME280;37697;52.588;13.394;2023-08-06T06:05:52;100052.52;;;16.11;100.00
51617;BME280;37697;52.588;13.394;2023-08-06T06:10:57;100046.86;;;16.13;100.00
51617;BME280;37697;52.588;13.394;2023-08-06T06:16:03;100042.72;;;16.15;100.00
51617;BME280;37697;52.588;13.394;2023-08-06T06:21:09;100042.27;;;16.19;100.00
51617;BME280;37697;52.588;13.394;2023-08-06T06:26:14;100034.96;;;16.22;100.00
51617;BME280;37697;52.588;13.394;2023-08-06T06:31:20;100027.29;;;16.27;100.00
51617;BME280;37697;52.588;13.394;2023-08-06T06:36:25;100024.02;;;16.29;100.00
51617;BME280;37697;52.588;13.394;2023-08-06T06:41:31;100018.13;;;16.32;100.00
51617;BME280;37697;52.588;13.394;2023-08-06T06:46:38;100013.67;;;16.35;100.00
51617;BME280;37697;52.588;13.394;2023-08-06T06:51:43;100009.48;;;16.36;100.00
51617;BME280;37697;52.588;13.394;2023-08-06T06:56:48;100008.03;;;16.38;100.00
51617;BME280;37697;52.588;13.394;2023-08-06T07:01:54;100001.10;;;16.44;100.00
51617;BME280;37697;52.588;13.394;2023-08-06T07:07:00;100006.52;;;16.48;100.00
51617;BME280;37697;52.588;13.394;2023-08-06T07:12:06;100011.13;;;16.55;100.00
51617;BME280;37697;52.588;13.394;2023-08-06T07:17:12;100013.00;;;16.60;100.00
51617;BME280;37697;52.588;13.394;2023-08-06T07:22:17;100012.86;;;16.65;100.00
51617;BME280;37697;52.588;13.394;2023-08-06T07:27:22;100012.95;;;16.72;100.00
51617;BME280;37697;52.588;13.394;2023-08-06T07:32:28;100013.45;;;16.76;100.00
51617;BME280;37697;52.588;13.394;2023-08-06T07:37:33;100015.81;;;16.79;100.00
51617;BME280;37697;52.588;13.394;2023-08-06T07:42:39;100010.20;;;16.81;100.00
51617;BME280;37697;52.588;13.394;2023-08-06T07:47:44;100013.72;;;16.84;100.00
51617;BME280;37697;52.588;13.394;2023-08-06T07:52:49;100013.14;;;16.86;100.00
51617;BME280;37697;52.588;13.394;2023-08-06T07:57:55;100014.20;;;16.88;100.00
51617;BME280;37697;52.588;13.394;2023-08-06T08:03:00;100007.68;;;16.88;100.00
51617;BME280;37697;52.588;13.394;2023-08-06T08:08:06;100009.02;;;16.91;100.00
51617;BME280;37697;52.588;13.394;2023-08-06T08:13:11;100005.27;;;16.96;100.00
51617;BME280;37697;52.588;13.394;2023-08-06T08:18:17;99998.58;;;17.04;100.00
51617;BME280;37697;52.588;13.394;2023-08-06T08:23:22;99996.05;;;17.12;100.00
51617;BME280;37697;52.588;13.394;2023-08-06T08:28:28;99987.96;;;17.18;100.00
51617;BME280;37697;52.588;13.394;2023-08-06T08:33:33;99982.08;;;17.21;100.00
51617;BME280;37697;52.588;13.394;2023-08-06T08:38:39;99977.27;;;17.28;100.00
51617;BME280;37697;52.588;13.394;2023-08-06T08:43:44;99970.60;;;17.32;100.00
51617;BME280;37697;52.588;13.394;2023-08-06T08:48:50;99966.02;;;17.33;100.00
51617;BME280;37697;52.588;13.394;2023-08-06T08:53:56;99959.23;;;17.36;100.00
51617;BME280;37697;52.588;13.394;2023-08-06T08:59:02;99951.63;;;17.41;100.00
51617;BME280;37697;52.588;13.394;2023-08-06T09:04:08;99947.94;;;17.44;100.00
51617;BME280;37697;52.588;13.394;2023-08-06T09:09:17;99942.80;;;17.45;100.00
51617;BME280;37697;52.588;13.394;2023-08-06T09:14:27;99935.47;;;17.45;100.00
51617;BME280;37697;52.588;13.394;2023-08-06T09:19:33;99930.06;;;17.49;100.00
51617;BME280;37697;52.588;13.394;2023-08-06T09:24:41;99921.04;;;17.56;100.00
51617;BME280;37697;52.588;13.394;2023-08-06T09:29:47;99920.69;;;17.63;100.00
51617;BME280;37697;52.588;13.394;2023-08-06T09:34:57;99917.21;;;17.69;100.00
51617;BME280;37697;52.588;13.394;2023-08-06T09:40:02;99912.97;;;17.72;100.00
51617;BME280;37697;52.588;13.394;2023-08-06T09:45:08;99906.75;;;17.82;100.00
51617;BME280;37697;52.588;13.394;2023-08-06T09:50:18;99895.98;;;17.92;100.00
51617;BME280;37697;52.588;13.394;2023-08-06T09:55:24;99893.23;;;18.01;100.00
51617;BME280;37697;52.588;13.394;2023-08-06T10:00:30;99887.08;;;18.04;100.00
51617;BME280;37697;52.588;13.394;2023-08-06T10:05:38;99883.85;;;18.11;99.95
51617;BME280;37697;52.588;13.394;2023-08-06T10:10:43;99878.83;;;18.16;99.26
51617;BME280;37697;52.588;13.394;2023-08-06T10:15:50;99878.13;;;18.17;98.72
51617;BME280;37697;52.588;13.394;2023-08-06T10:20:57;99873.61;;;18.13;97.31
51617;BME280;37697;52.588;13.394;2023-08-06T10:26:02;99868.73;;;18.07;96.51
51617;BME280;37697;52.588;13.394;2023-08-06T10:31:07;99866.71;;;18.04;97.30
51617;BME280;37697;52.588;13.394;2023-08-06T10:36:13;99862.76;;;18.06;98.61
51617;BME280;37697;52.588;13.394;2023-08-06T10:41:27;99860.20;;;18.10;99.02
51617;BME280;37697;52.588;13.394;2023-08-06T10:46:32;99861.34;;;18.13;98.66
51617;BME280;37697;52.588;13.394;2023-08-06T10:51:38;99858.41;;;18.14;98.41
51617;BME280;37697;52.588;13.394;2023-08-06T10:56:43;99853.91;;;18.15;98.29
51617;BME280;37697;52.588;13.394;2023-08-06T11:01:49;99851.73;;;18.13;97.72
51617;BME280;37697;52.588;13.394;2023-08-06T11:06:55;99844.48;;;18.13;97.56
51617;BME280;37697;52.588;13.394;2023-08-06T11:12:00;99837.91;;;18.11;97.60
51617;BME280;37697;52.588;13.394;2023-08-06T11:17:06;99833.35;;;18.09;97.63
51617;BME280;37697;52.588;13.394;2023-08-06T11:22:11;99827.22;;;18.09;97.43
51617;BME280;37697;52.588;13.394;2023-08-06T11:27:17;99815.38;;;18.09;97.06
51617;BME280;37697;52.588;13.394;2023-08-06T11:32:23;99809.50;;;18.11;96.88
51617;BME280;37697;52.588;13.394;2023-08-06T11:37:28;99807.05;;;18.12;97.29
51617;BME280;37697;52.588;13.394;2023-08-06T11:42:34;99798.20;;;18.12;97.36
51617;BME280;37697;52.588;13.394;2023-08-06T11:47:41;99794.73;;;18.13;98.62
51617;BME280;37697;52.588;13.394;2023-08-06T11:52:46;99791.98;;;18.17;99.41
51617;BME280;37697;52.588;13.394;2023-08-06T11:57:52;99783.20;;;18.21;99.66
51617;BME280;37697;52.588;13.394;2023-08-06T12:02:58;99780.97;;;18.21;99.00
51617;BME280;37697;52.588;13.394;2023-08-06T12:08:04;99776.90;;;18.20;98.95
51617;BME280;37697;52.588;13.394;2023-08-06T12:13:09;99771.58;;;18.21;98.92
51617;BME280;37697;52.588;13.394;2023-08-06T12:18:14;99767.16;;;18.24;98.65
51617;BME280;37697;52.588;13.394;2023-08-06T12:23:20;99763.77;;;18.27;98.59
51617;BME280;37697;52.588;13.394;2023-08-06T12:28:25;99757.71;;;18.33;98.52
51617;BME280;37697;52.588;13.394;2023-08-06T12:33:31;99756.86;;;18.27;98.12
51617;BME280;37697;52.588;13.394;2023-08-06T12:38:36;99760.27;;;18.26;98.24
51617;BME280;37697;52.588;13.394;2023-08-06T12:43:41;99755.95;;;18.26;98.54
51617;BME280;37697;52.588;13.394;2023-08-06T12:48:47;99759.39;;;18.26;99.11
51617;BME280;37697;52.588;13.394;2023-08-06T12:53:53;99762.98;;;18.22;99.46
51617;BME280;37697;52.588;13.394;2023-08-06T12:58:59;99765.71;;;18.23;99.73
51617;BME280;37697;52.588;13.394;2023-08-06T13:04:04;99764.11;;;18.22;99.91
51617;BME280;37697;52.588;13.394;2023-08-06T13:09:25;99758.24;;;18.17;99.64
51617;BME280;37697;52.588;13.394;2023-08-06T13:14:35;99756.11;;;18.12;99.52
51617;BME280;37697;52.588;13.394;2023-08-06T13:19:41;99762.80;;;18.12;99.86
51617;BME280;37697;52.588;13.394;2023-08-06T13:24:46;99763.91;;;18.12;99.75
51617;BME280;37697;52.588;13.394;2023-08-06T13:29:52;99762.38;;;18.05;98.93
51617;BME280;37697;52.588;13.394;2023-08-06T13:34:57;99757.73;;;18.03;98.95
51617;BME280;37697;52.588;13.394;2023-08-06T13:40:03;99754.16;;;18.03;99.09
51617;BME280;37697;52.588;13.394;2023-08-06T13:45:09;99751.06;;;18.04;98.91
51617;BME280;37697;52.588;13.394;2023-08-06T13:50:15;99754.20;;;18.00;98.56
51617;BME280;37697;52.588;13.394;2023-08-06T13:55:20;99751.98;;;17.94;98.23
51617;BME280;37697;52.588;13.394;2023-08-06T14:00:26;99751.06;;;17.87;98.25
51617;BME280;37697;52.588;13.394;2023-08-06T14:05:32;99747.80;;;17.83;99.41
51617;BME280;37697;52.588;13.394;2023-08-06T14:10:37;99747.77;;;17.85;99.94
51617;BME280;37697;52.588;13.394;2023-08-06T14:15:43;99747.02;;;17.84;99.77
51617;BME280;37697;52.588;13.394;2023-08-06T14:20:52;99752.14;;;17.85;99.99
51617;BME280;37697;52.588;13.394;2023-08-06T14:25:57;99753.21;;;17.77;99.48
51617;BME280;37697;52.588;13.394;2023-08-06T14:31:03;99754.83;;;17.62;99.14
51617;BME280;37697;52.588;13.394;2023-08-06T14:36:08;99755.35;;;17.59;99.56
51617;BME280;37697;52.588;13.394;2023-08-06T14:41:13;99758.02;;;17.56;99.50
51617;BME280;37697;52.588;13.394;2023-08-06T14:46:19;99760.20;;;17.55;99.32
51617;BME280;37697;52.588;13.394;2023-08-06T14:51:24;99758.98;;;17.53;99.83
51617;BME280;37697;52.588;13.394;2023-08-06T14:56:29;99749.05;;;17.54;99.79
51617;BME280;37697;52.588;13.394;2023-08-06T15:01:35;99752.98;;;17.51;99.22
51617;BME280;37697;52.588;13.394;2023-08-06T15:06:40;99749.10;;;17.46;99.21
51617;BME280;37697;52.588;13.394;2023-08-06T15:11:46;99746.21;;;17.45;99.41
51617;BME280;37697;52.588;13.394;2023-08-06T15:16:51;99751.55;;;17.45;99.87
51617;BME280;37697;52.588;13.394;2023-08-06T15:21:57;99746.66;;;17.48;100.00
51617;BME280;37697;52.588;13.394;2023-08-06T15:27:03;99746.93;;;17.44;100.00
51617;BME280;37697;52.588;13.394;2023-08-06T15:32:09;99750.34;;;17.39;100.00
51617;BME280;37697;52.588;13.394;2023-08-06T15:37:14;99753.30;;;17.35;100.00
51617;BME280;37697;52.588;13.394;2023-08-06T15:42:20;99757.30;;;17.32;100.00
51617;BME280;37697;52.588;13.394;2023-08-06T15:47:26;99755.41;;;17.24;100.00
51617;BME280;37697;52.588;13.394;2023-08-06T15:52:31;99753.89;;;17.12;99.92
51617;BME280;37697;52.588;13.394;2023-08-06T15:57:37;99757.27;;;17.01;99.81
51617;BME280;37697;52.588;13.394;2023-08-06T16:02:42;99757.12;;;16.93;100.00
51617;BME280;37697;52.588;13.394;2023-08-06T16:07:50;99758.13;;;16.92;100.00
51617;BME280;37697;52.588;13.394;2023-08-06T16:12:56;99762.60;;;16.89;100.00
51617;BME280;37697;52.588;13.394;2023-08-06T16:18:01;99762.48;;;16.86;100.00
51617;BME280;37697;52.588;13.394;2023-08-06T16:23:07;99763.43;;;16.82;100.00
51617;BME280;37697;52.588;13.394;2023-08-06T16:28:12;99767.09;;;16.83;100.00
51617;BME280;37697;52.588;13.394;2023-08-06T16:33:18;99765.08;;;16.81;100.00
51617;BME280;37697;52.588;13.394;2023-08-06T16:38:23;99768.30;;;16.76;100.00
51617;BME280;37697;52.588;13.394;2023-08-06T16:43:28;99766.27;;;16.73;100.00
51617;BME280;37697;52.588;13.394;2023-08-06T16:48:34;99767.19;;;16.72;100.00
51617;BME280;37697;52.588;13.394;2023-08-06T16:53:41;99764.95;;;16.71;100.00
51617;BME280;37697;52.588;13.394;2023-08-06T16:58:48;99761.98;;;16.65;100.00
51617;BME280;37697;52.588;13.394;2023-08-06T17:03:53;99759.33;;;16.59;100.00
51617;BME280;37697;52.588;13.394;2023-08-06T17:09:00;99757.17;;;16.58;100.00
51617;BME280;37697;52.588;13.394;2023-08-06T17:14:08;99748.27;;;16.54;100.00
51617;BME280;37697;52.588;13.394;2023-08-06T17:19:15;99745.75;;;16.51;100.00
51617;BME280;37697;52.588;13.394;2023-08-06T17:24:22;99747.52;;;16.48;100.00
51617;BME280;37697;52.588;13.394;2023-08-06T17:29:28;99742.81;;;16.42;99.81
51617;BME280;37697;52.588;13.394;2023-08-06T17:34:33;99738.15;;;16.32;99.52
51617;BME280;37697;52.588;13.394;2023-08-06T17:39:39;99731.00;;;16.26;99.77
51617;BME280;37697;52.588;13.394;2023-08-06T17:44:44;99727.97;;;16.22;99.69
51617;BME280;37697;52.588;13.394;2023-08-06T17:49:49;99731.74;;;16.13;99.97
51617;BME280;37697;52.588;13.394;2023-08-06T17:54:55;99735.45;;;16.04;100.00
51617;BME280;37697;52.588;13.394;2023-08-06T18:00:00;99732.45;;;16.01;100.00
51617;BME280;37697;52.588;13.394;2023-08-06T18:05:07;99734.61;;;15.98;100.00
51617;BME280;37697;52.588;13.394;2023-08-06T18:10:12;99733.02;;;15.94;100.00
51617;BME280;37697;52.588;13.394;2023-08-06T18:15:18;99735.48;;;15.87;100.00
51617;BME280;37697;52.588;13.394;2023-08-06T18:20:24;99735.70;;;15.82;100.00
51617;BME280;37697;52.588;13.394;2023-08-06T18:25:29;99740.85;;;15.78;100.00
51617;BME280;37697;52.588;13.394;2023-08-06T18:30:34;99745.48;;;15.70;100.00
51617;BME280;37697;52.588;13.394;2023-08-06T18:35:43;99743.12;;;15.64;100.00
51617;BME280;37697;52.588;13.394;2023-08-06T18:40:48;99747.61;;;15.63;100.00
51617;BME280;37697;52.588;13.394;2023-08-06T18:45:54;99746.00;;;15.59;100.00
51617;BME280;37697;52.588;13.394;2023-08-06T18:51:00;99746.17;;;15.55;100.00
51617;BME280;37697;52.588;13.394;2023-08-06T18:56:06;99748.20;;;15.54;100.00
51617;BME280;37697;52.588;13.394;2023-08-06T19:01:11;99751.06;;;15.54;100.00
51617;BME280;37697;52.588;13.394;2023-08-06T19:06:16;99759.36;;;15.50;100.00
51617;BME280;37697;52.588;13.394;2023-08-06T19:11:22;99758.41;;;15.46;100.00
51617;BME280;37697;52.588;13.394;2023-08-06T19:16:27;99765.07;;;15.43;100.00
51617;BME280;37697;52.588;13.394;2023-08-06T19:21:32;99767.24;;;15.41;100.00
51617;BME280;37697;52.588;13.394;2023-08-06T19:26:38;99766.45;;;15.38;100.00
51617;BME280;37697;52.588;13.394;2023-08-06T19:31:44;99771.48;;;15.32;100.00
51617;BME280;37697;52.588;13.394;2023-08-06T19:37:09;99769.48;;;15.29;100.00
51617;BME280;37697;52.588;13.394;2023-08-06T19:42:14;99772.35;;;15.26;100.00
51617;BME280;37697;52.588;13.394;2023-08-06T19:47:20;99777.31;;;15.25;100.00
51617;BME280;37697;52.588;13.394;2023-08-06T19:52:25;99772.66;;;15.23;100.00
51617;BME280;37697;52.588;13.394;2023-08-06T19:57:30;99766.27;;;15.24;100.00
51617;BME280;37697;52.588;13.394;2023-08-06T20:02:36;99769.30;;;15.22;100.00
51617;BME280;37697;52.588;13.394;2023-08-06T20:07:41;99773.56;;;15.18;100.00
51617;BME280;37697;52.588;13.394;2023-08-06T20:12:47;99769.34;;;15.14;100.00
51617;BME280;37697;52.588;13.394;2023-08-06T20:17:52;99771.61;;;15.10;100.00
51617;BME280;37697;52.588;13.394;2023-08-06T20:22:58;99774.02;;;15.05;100.00
51617;BME280;37697;52.588;13.394;2023-08-06T20:28:03;99778.00;;;15.02;100.00
51617;BME280;37697;52.588;13.394;2023-08-06T20:33:09;99775.42;;;15.00;100.00
51617;BME280;37697;52.588;13.394;2023-08-06T20:38:14;99769.64;;;14.97;100.00
51617;BME280;37697;52.588;13.394;2023-08-06T20:43:20;99766.77;;;14.91;100.00
51617;BME280;37697;52.588;13.394;2023-08-06T20:48:25;99766.05;;;14.87;100.00
51617;BME280;37697;52.588;13.394;2023-08-06T20:53:33;99760.89;;;14.81;100.00
51617;BME280;37697;52.588;13.394;2023-08-06T20:58:38;99761.84;;;14.77;100.00
51617;BME280;37697;52.588;13.394;2023-08-06T21:03:44;99766.20;;;14.74;100.00
51617;BME280;37697;52.588;13.394;2023-08-06T21:08:49;99773.50;;;14.67;100.00
51617;BME280;37697;52.588;13.394;2023-08-06T21:13:54;99776.55;;;14.57;100.00
51617;BME280;37697;52.588;13.394;2023-08-06T21:19:00;99776.46;;;14.51;100.00
51617;BME280;37697;52.588;13.394;2023-08-06T21:24:09;99770.73;;;14.44;100.00
51617;BME280;37697;52.588;13.394;2023-08-06T21:29:14;99767.43;;;14.37;100.00
51617;BME280;37697;52.588;13.394;2023-08-06T21:34:20;99767.40;;;14.27;100.00
51617;BME280;37697;52.588;13.394;2023-08-06T21:39:25;99759.83;;;14.20;99.98
51617;BME280;37697;52.588;13.394;2023-08-06T21:44:31;99756.86;;;14.15;99.96
51617;BME280;37697;52.588;13.394;2023-08-06T21:49:36;99748.88;;;14.11;99.92
51617;BME280;37697;52.588;13.394;2023-08-06T21:54:42;99751.83;;;14.06;99.60
51617;BME280;37697;52.588;13.394;2023-08-06T21:59:47;99752.79;;;14.01;99.63
51617;BME280;37697;52.588;13.394;2023-08-06T22:04:52;99751.61;;;13.98;99.68
51617;BME280;37697;52.588;13.394;2023-08-06T22:09:58;99747.26;;;13.96;99.76
51617;BME280;37697;52.588;13.394;2023-08-06T22:15:04;99752.27;;;13.94;99.92
51617;BME280;37697;52.588;13.394;2023-08-06T22:20:11;99757.19;;;13.92;100.00
51617;BME280;37697;52.588;13.394;2023-08-06T22:25:17;99765.55;;;13.91;100.00
51617;BME280;37697;52.588;13.394;2023-08-06T22:30:22;99769.63;;;13.90;100.00
51617;BME280;37697;52.588;13.394;2023-08-06T22:35:28;99775.56;;;13.87;100.00
51617;BME280;37697;52.588;13.394;2023-08-06T22:40:33;99775.75;;;13.86;100.00
51617;BME280;37697;52.588;13.394;2023-08-06T22:45:39;99780.49;;;13.83;100.00
51617;BME280;37697;52.588;13.394;2023-08-06T22:50:45;99787.13;;;13.83;100.00
51617;BME280;37697;52.588;13.394;2023-08-06T22:55:51;99788.89;;;13.81;100.00
51617;BME280;37697;52.588;13.394;2023-08-06T23:00:59;99795.06;;;13.76;100.00
51617;BME280;37697;52.588;13.394;2023-08-06T23:06:07;99797.82;;;13.73;100.00
51617;BME280;37697;52.588;13.394;2023-08-06T23:11:14;99798.44;;;13.70;100.00
51617;BME280;37697;52.588;13.394;2023-08-06T23:16:19;99802.98;;;13.69;100.00
51617;BME280;37697;52.588;13.394;2023-08-06T23:21:25;99805.48;;;13.66;100.00
51617;BME280;37697;52.588;13.394;2023-08-06T23:26:30;99800.81;;;13.63;100.00
51617;BME280;37697;52.588;13.394;2023-08-06T23:31:36;99801.98;;;13.60;100.00
51617;BME280;37697;52.588;13.394;2023-08-06T23:36:41;99794.33;;;13.60;100.00
51617;BME280;37697;52.588;13.394;2023-08-06T23:41:46;99785.39;;;13.62;100.00
51617;BME280;37697;52.588;13.394;2023-08-06T23:46:52;99781.77;;;13.63;100.00
51617;BME280;37697;52.588;13.394;2023-08-06T23:51:57;99773.42;;;13.61;100.00
51617;BME280;37697;52.588;13.394;2023-08-06T23:57:02;99768.51;;;13.58;100.00
